sensor_id;sensor_type;location;lat;lon;timestamp;pressure;altitude;pressure_sealevel;temperature;humidity
53270;BME280;39159;45.634;9.420;2023-08-07T00:00:21;98350.53;;;19.57;32.39
53270;BME280;39159;45.634;9.420;2023-08-07T00:02:47;98343.41;;;19.60;31.68
53270;BME280;39159;45.634;9.420;2023-08-07T00:05:13;98337.84;;;19.56;30.75
53270;BME280;39159;45.634;9.420;2023-08-07T00:07:38;98337.84;;;19.56;31.02
53270;BME280;39159;45.634;9.420;2023-08-07T00:10:04;98345.72;;;19.51;31.19
53270;BME280;39159;45.634;9.420;2023-08-07T00:12:30;98338.97;;;19.48;31.59
53270;BME280;39159;45.634;9.420;2023-08-07T00:14:55;98340.91;;;19.44;32.87
53270;BME280;39159;45.634;9.420;2023-08-07T00:17:20;98344.47;;;19.44;32.49
53270;BME280;39159;45.634;9.420;2023-08-07T00:19:46;98335.75;;;19.39;32.24
53270;BME280;39159;45.634;9.420;2023-08-07T00:22:11;98337.31;;;19.40;32.00
53270;BME280;39159;45.634;9.420;2023-08-07T00:24:37;98347.09;;;19.26;31.81
53270;BME280;39159;45.634;9.420;2023-08-07T00:27:02;98339.94;;;19.22;32.46
53270;BME280;39159;45.634;9.420;2023-08-07T00:29:28;98338.31;;;19.17;31.84
53270;BME280;39159;45.634;9.420;2023-08-07T00:31:53;98332.78;;;19.17;31.82
53270;BME280;39159;45.634;9.420;2023-08-07T00:34:19;98331.56;;;19.15;32.01
53270;BME280;39159;45.634;9.420;2023-08-07T00:36:44;98330.41;;;19.19;31.81
53270;BME280;39159;45.634;9.420;2023-08-07T00:39:10;98332.81;;;19.21;31.46
53270;BME280;39159;45.634;9.420;2023-08-07T00:41:36;98328.91;;;19.29;31.80
53270;BME280;39159;45.634;9.420;2023-08-07T00:44:01;98324.94;;;19.26;31.35
53270;BME280;39159;45.634;9.420;2023-08-07T00:46:27;98322.59;;;19.29;31.79
53270;BME280;39159;45.634;9.420;2023-08-07T00:48:55;98320.66;;;19.33;31.21
53270;BME280;39159;45.634;9.420;2023-08-07T00:51:21;98315.97;;;19.37;31.49
53270;BME280;39159;45.634;9.420;2023-08-07T00:53:48;98320.63;;;19.29;31.53
53270;BME280;39159;45.634;9.420;2023-08-07T00:56:14;98317.84;;;19.25;31.75
53270;BME280;39159;45.634;9.420;2023-08-07T00:58:40;98324.94;;;19.26;31.41
53270;BME280;39159;45.634;9.420;2023-08-07T01:01:05;98322.66;;;19.32;30.94
53270;BME280;39159;45.634;9.420;2023-08-07T01:03:31;98322.66;;;19.36;31.21
53270;BME280;39159;45.634;9.420;2023-08-07T01:05:57;98325.72;;;19.23;32.14
53270;BME280;39159;45.634;9.420;2023-08-07T01:08:24;98337.09;;;19.15;32.40
53270;BME280;39159;45.634;9.420;2023-08-07T01:16:45;98332.28;;;19.08;32.78
53270;BME280;39159;45.634;9.420;2023-08-07T01:19:33;98332.22;;;19.01;32.99
53270;BME280;39159;45.634;9.420;2023-08-07T01:24:34;98334.09;;;18.93;34.28
53270;BME280;39159;45.634;9.420;2023-08-07T01:29:57;98346.31;;;18.89;34.83
53270;BME280;39159;45.634;9.420;2023-08-07T01:32:29;98340.97;;;18.76;35.02
53270;BME280;39159;45.634;9.420;2023-08-07T01:35:01;98342.50;;;18.70;34.69
53270;BME280;39159;45.634;9.420;2023-08-07T01:37:28;98340.53;;;18.71;34.33
53270;BME280;39159;45.634;9.420;2023-08-07T01:39:55;98353.16;;;18.72;33.16
53270;BME280;39159;45.634;9.420;2023-08-07T01:42:21;98348.16;;;18.77;32.25
53270;BME280;39159;45.634;9.420;2023-08-07T01:44:47;98356.53;;;18.84;32.05
53270;BME280;39159;45.634;9.420;2023-08-07T01:47:12;98345.53;;;18.92;32.12
53270;BME280;39159;45.634;9.420;2023-08-07T01:49:38;98352.66;;;18.93;32.65
53270;BME280;39159;45.634;9.420;2023-08-07T01:52:06;98365.72;;;18.96;31.78
53270;BME280;39159;45.634;9.420;2023-08-07T01:54:32;98365.00;;;18.99;32.48
53270;BME280;39159;45.634;9.420;2023-08-07T01:56:57;98355.09;;;18.98;32.45
53270;BME280;39159;45.634;9.420;2023-08-07T01:59:23;98354.78;;;19.07;32.39
53270;BME280;39159;45.634;9.420;2023-08-07T02:01:48;98355.13;;;19.01;31.88
53270;BME280;39159;45.634;9.420;2023-08-07T02:04:14;98351.88;;;18.92;31.87
53270;BME280;39159;45.634;9.420;2023-08-07T02:06:39;98359.41;;;18.95;32.17
53270;BME280;39159;45.634;9.420;2023-08-07T02:09:04;98356.66;;;18.95;31.68
53270;BME280;39159;45.634;9.420;2023-08-07T02:11:30;98359.78;;;18.94;31.64
53270;BME280;39159;45.634;9.420;2023-08-07T02:13:55;98361.75;;;18.93;31.87
53270;BME280;39159;45.634;9.420;2023-08-07T02:16:21;98366.56;;;19.00;32.33
53270;BME280;39159;45.634;9.420;2023-08-07T02:18:46;98363.03;;;19.03;32.08
53270;BME280;39159;45.634;9.420;2023-08-07T02:21:11;98368.25;;;19.08;31.51
53270;BME280;39159;45.634;9.420;2023-08-07T02:23:37;98371.44;;;19.10;32.07
53270;BME280;39159;45.634;9.420;2023-08-07T02:26:02;98354.38;;;19.04;31.04
53270;BME280;39159;45.634;9.420;2023-08-07T02:28:28;98348.47;;;19.06;31.20
53270;BME280;39159;45.634;9.420;2023-08-07T02:30:53;98347.69;;;19.05;31.07
53270;BME280;39159;45.634;9.420;2023-08-07T02:33:19;98339.69;;;19.00;31.18
53270;BME280;39159;45.634;9.420;2023-08-07T02:35:45;98337.72;;;18.97;30.29
53270;BME280;39159;45.634;9.420;2023-08-07T02:38:11;98340.53;;;19.04;30.66
53270;BME280;39159;45.634;9.420;2023-08-07T02:40:36;98329.09;;;19.06;30.48
53270;BME280;39159;45.634;9.420;2023-08-07T02:43:02;98342.16;;;19.09;29.96
53270;BME280;39159;45.634;9.420;2023-08-07T02:45:28;98332.72;;;19.10;30.50
53270;BME280;39159;45.634;9.420;2023-08-07T02:47:53;98346.13;;;19.12;29.96
53270;BME280;39159;45.634;9.420;2023-08-07T02:50:19;98348.09;;;19.08;30.25
53270;BME280;39159;45.634;9.420;2023-08-07T02:52:44;98346.06;;;19.01;30.91
53270;BME280;39159;45.634;9.420;2023-08-07T02:55:09;98344.38;;;18.93;31.23
53270;BME280;39159;45.634;9.420;2023-08-07T02:57:35;98344.66;;;18.84;31.43
53270;BME280;39159;45.634;9.420;2023-08-07T03:00:00;98354.13;;;18.83;30.81
53270;BME280;39159;45.634;9.420;2023-08-07T03:02:26;98348.59;;;18.83;30.61
53270;BME280;39159;45.634;9.420;2023-08-07T03:04:51;98340.31;;;18.83;30.76
53270;BME280;39159;45.634;9.420;2023-08-07T03:07:17;98339.94;;;18.84;30.92
53270;BME280;39159;45.634;9.420;2023-08-07T03:09:45;98339.50;;;18.82;30.81
53270;BME280;39159;45.634;9.420;2023-08-07T03:12:11;98345.03;;;18.82;30.12
53270;BME280;39159;45.634;9.420;2023-08-07T03:14:37;98354.97;;;18.87;30.40
53270;BME280;39159;45.634;9.420;2023-08-07T03:17:02;98356.94;;;18.87;29.87
53270;BME280;39159;45.634;9.420;2023-08-07T03:19:28;98355.00;;;18.91;30.31
53270;BME280;39159;45.634;9.420;2023-08-07T03:21:53;98356.09;;;18.82;30.53
53270;BME280;39159;45.634;9.420;2023-08-07T03:24:18;98352.13;;;18.80;31.01
53270;BME280;39159;45.634;9.420;2023-08-07T03:26:44;98355.19;;;18.75;31.25
53270;BME280;39159;45.634;9.420;2023-08-07T03:29:12;98355.06;;;18.64;31.62
53270;BME280;39159;45.634;9.420;2023-08-07T03:31:38;98351.81;;;18.55;31.90
53270;BME280;39159;45.634;9.420;2023-08-07T03:34:03;98350.47;;;18.45;32.23
53270;BME280;39159;45.634;9.420;2023-08-07T03:36:28;98360.81;;;18.48;32.94
53270;BME280;39159;45.634;9.420;2023-08-07T03:38:54;98354.78;;;18.42;32.58
53270;BME280;39159;45.634;9.420;2023-08-07T03:41:19;98357.84;;;18.34;33.13
53270;BME280;39159;45.634;9.420;2023-08-07T03:43:45;98365.69;;;18.32;33.37
53270;BME280;39159;45.634;9.420;2023-08-07T03:46:10;98371.97;;;18.29;34.34
53270;BME280;39159;45.634;9.420;2023-08-07T03:48:37;98366.44;;;18.29;34.22
53270;BME280;39159;45.634;9.420;2023-08-07T03:51:06;98363.81;;;18.09;34.11
53270;BME280;39159;45.634;9.420;2023-08-07T03:53:36;98374.06;;;18.09;34.56
53270;BME280;39159;45.634;9.420;2023-08-07T03:56:01;98384.34;;;18.12;34.43
53270;BME280;39159;45.634;9.420;2023-08-07T03:58:26;98387.44;;;18.07;33.94
53270;BME280;39159;45.634;9.420;2023-08-07T04:00:52;98388.19;;;18.04;34.67
53270;BME280;39159;45.634;9.420;2023-08-07T04:03:19;98386.16;;;18.00;34.44
53270;BME280;39159;45.634;9.420;2023-08-07T04:05:45;98397.25;;;18.04;35.40
53270;BME280;39159;45.634;9.420;2023-08-07T04:08:10;98405.81;;;17.95;35.75
53270;BME280;39159;45.634;9.420;2023-08-07T04:10:36;98407.66;;;17.88;36.25
53270;BME280;39159;45.634;9.420;2023-08-07T04:13:01;98419.38;;;17.81;36.52
53270;BME280;39159;45.634;9.420;2023-08-07T04:15:27;98425.75;;;17.85;35.09
53270;BME280;39159;45.634;9.420;2023-08-07T04:17:52;98429.19;;;18.01;33.95
53270;BME280;39159;45.634;9.420;2023-08-07T04:20:17;98430.94;;;18.13;34.31
53270;BME280;39159;45.634;9.420;2023-08-07T04:22:45;98426.00;;;18.26;32.87
53270;BME280;39159;45.634;9.420;2023-08-07T04:25:11;98434.03;;;18.35;33.26
53270;BME280;39159;45.634;9.420;2023-08-07T04:27:36;98425.78;;;18.38;33.47
53270;BME280;39159;45.634;9.420;2023-08-07T04:30:02;98414.69;;;18.35;32.58
53270;BME280;39159;45.634;9.420;2023-08-07T04:32:27;98421.88;;;18.43;32.65
53270;BME280;39159;45.634;9.420;2023-08-07T04:34:53;98426.25;;;18.44;32.53
53270;BME280;39159;45.634;9.420;2023-08-07T04:37:18;98428.69;;;18.49;32.17
53270;BME280;39159;45.634;9.420;2023-08-07T04:39:44;98431.16;;;18.54;32.74
53270;BME280;39159;45.634;9.420;2023-08-07T04:42:09;98422.44;;;18.52;32.67
53270;BME280;39159;45.634;9.420;2023-08-07T04:44:34;98425.06;;;18.45;32.84
53270;BME280;39159;45.634;9.420;2023-08-07T04:47:00;98422.72;;;18.43;32.59
53270;BME280;39159;45.634;9.420;2023-08-07T04:49:25;98418.72;;;18.41;32.19
53270;BME280;39159;45.634;9.420;2023-08-07T04:51:51;98416.34;;;18.39;32.54
53270;BME280;39159;45.634;9.420;2023-08-07T04:54:16;98402.97;;;18.45;31.77
53270;BME280;39159;45.634;9.420;2023-08-07T04:56:42;98396.09;;;18.62;31.09
53270;BME280;39159;45.634;9.420;2023-08-07T04:59:09;98378.03;;;18.68;31.26
53270;BME280;39159;45.634;9.420;2023-08-07T05:01:35;98376.91;;;18.76;31.77
53270;BME280;39159;45.634;9.420;2023-08-07T05:04:00;98372.75;;;18.86;31.29
53270;BME280;39159;45.634;9.420;2023-08-07T05:06:26;98372.03;;;18.93;30.79
53270;BME280;39159;45.634;9.420;2023-08-07T05:08:52;98378.34;;;18.93;30.90
53270;BME280;39159;45.634;9.420;2023-08-07T05:11:17;98374.81;;;18.96;31.10
53270;BME280;39159;45.634;9.420;2023-08-07T05:13:44;98391.44;;;19.00;30.93
53270;BME280;39159;45.634;9.420;2023-08-07T05:16:10;98394.28;;;19.03;31.35
53270;BME280;39159;45.634;9.420;2023-08-07T05:18:35;98394.34;;;19.11;31.24
53270;BME280;39159;45.634;9.420;2023-08-07T05:21:01;98410.56;;;19.12;31.51
53270;BME280;39159;45.634;9.420;2023-08-07T05:23:26;98411.38;;;19.16;31.70
53270;BME280;39159;45.634;9.420;2023-08-07T05:25:52;98411.38;;;19.16;32.31
53270;BME280;39159;45.634;9.420;2023-08-07T05:28:17;98415.09;;;19.28;32.87
53270;BME280;39159;45.634;9.420;2023-08-07T05:30:42;98417.44;;;19.25;32.68
53270;BME280;39159;45.634;9.420;2023-08-07T05:33:08;98414.97;;;19.20;31.56
53270;BME280;39159;45.634;9.420;2023-08-07T05:35:33;98414.66;;;19.25;31.55
53270;BME280;39159;45.634;9.420;2023-08-07T05:37:59;98409.56;;;19.28;31.64
53270;BME280;39159;45.634;9.420;2023-08-07T05:40:24;98419.50;;;19.36;31.43
53270;BME280;39159;45.634;9.420;2023-08-07T05:42:50;98421.13;;;19.40;30.93
53270;BME280;39159;45.634;9.420;2023-08-07T05:45:15;98423.56;;;19.45;30.22
53270;BME280;39159;45.634;9.420;2023-08-07T05:47:40;98432.38;;;19.58;30.30
53270;BME280;39159;45.634;9.420;2023-08-07T05:50:06;98437.66;;;19.71;30.22
53270;BME280;39159;45.634;9.420;2023-08-07T05:52:32;98429.00;;;19.76;29.48
53270;BME280;39159;45.634;9.420;2023-08-07T05:54:57;98438.50;;;19.78;29.89
53270;BME280;39159;45.634;9.420;2023-08-07T05:57:22;98438.03;;;19.69;29.87
53270;BME280;39159;45.634;9.420;2023-08-07T05:59:48;98434.59;;;19.83;30.49
53270;BME280;39159;45.634;9.420;2023-08-07T06:02:13;98428.31;;;19.86;29.80
53270;BME280;39159;45.634;9.420;2023-08-07T06:04:39;98431.97;;;20.01;29.87
53270;BME280;39159;45.634;9.420;2023-08-07T06:07:06;98431.72;;;20.17;29.68
53270;BME280;39159;45.634;9.420;2023-08-07T06:09:32;98434.25;;;20.40;29.80
53270;BME280;39159;45.634;9.420;2023-08-07T06:11:57;98437.38;;;20.38;28.86
53270;BME280;39159;45.634;9.420;2023-08-07T06:14:23;98435.56;;;20.57;28.86
53270;BME280;39159;45.634;9.420;2023-08-07T06:16:50;98441.97;;;20.68;28.97
53270;BME280;39159;45.634;9.420;2023-08-07T06:19:16;98449.88;;;20.69;28.67
53270;BME280;39159;45.634;9.420;2023-08-07T06:21:41;98444.41;;;20.87;29.50
53270;BME280;39159;45.634;9.420;2023-08-07T06:24:07;98457.50;;;20.83;29.17
53270;BME280;39159;45.634;9.420;2023-08-07T06:26:32;98459.19;;;21.13;29.46
53270;BME280;39159;45.634;9.420;2023-08-07T06:28:58;98467.94;;;21.19;29.10
53270;BME280;39159;45.634;9.420;2023-08-07T06:31:23;98471.16;;;21.31;29.35
53270;BME280;39159;45.634;9.420;2023-08-07T06:33:49;98469.97;;;21.36;29.81
53270;BME280;39159;45.634;9.420;2023-08-07T06:36:14;98470.88;;;21.65;29.50
53270;BME280;39159;45.634;9.420;2023-08-07T06:38:40;98472.88;;;21.83;28.83
53270;BME280;39159;45.634;9.420;2023-08-07T06:41:05;98473.28;;;21.92;28.73
53270;BME280;39159;45.634;9.420;2023-08-07T06:43:31;98476.88;;;22.21;28.49
53270;BME280;39159;45.634;9.420;2023-08-07T06:45:58;98476.13;;;22.28;28.39
53270;BME280;39159;45.634;9.420;2023-08-07T06:48:24;98480.84;;;22.45;28.72
53270;BME280;39159;45.634;9.420;2023-08-07T06:50:50;98485.22;;;22.46;27.86
53270;BME280;39159;45.634;9.420;2023-08-07T06:53:16;98477.66;;;22.61;27.80
53270;BME280;39159;45.634;9.420;2023-08-07T06:55:42;98468.84;;;22.84;28.10
53270;BME280;39159;45.634;9.420;2023-08-07T06:58:08;98478.34;;;22.94;27.31
53270;BME280;39159;45.634;9.420;2023-08-07T07:00:34;98479.56;;;23.00;27.03
53270;BME280;39159;45.634;9.420;2023-08-07T07:03:00;98476.66;;;23.25;28.07
53270;BME280;39159;45.634;9.420;2023-08-07T07:05:26;98471.00;;;23.43;28.01
53270;BME280;39159;45.634;9.420;2023-08-07T07:07:52;98470.38;;;23.07;26.91
53270;BME280;39159;45.634;9.420;2023-08-07T07:10:17;98462.78;;;23.22;27.03
53270;BME280;39159;45.634;9.420;2023-08-07T07:12:43;98469.97;;;23.19;26.23
53270;BME280;39159;45.634;9.420;2023-08-07T07:15:08;98473.56;;;23.12;26.87
53270;BME280;39159;45.634;9.420;2023-08-07T07:17:34;98472.69;;;23.26;26.70
53270;BME280;39159;45.634;9.420;2023-08-07T07:20:00;98475.50;;;23.23;25.82
53270;BME280;39159;45.634;9.420;2023-08-07T07:22:25;98473.63;;;23.72;26.59
53270;BME280;39159;45.634;9.420;2023-08-07T07:24:51;98466.84;;;23.76;25.77
53270;BME280;39159;45.634;9.420;2023-08-07T07:27:16;98473.19;;;23.81;26.38
53270;BME280;39159;45.634;9.420;2023-08-07T07:29:42;98477.53;;;23.85;25.95
53270;BME280;39159;45.634;9.420;2023-08-07T07:32:07;98476.28;;;23.97;25.04
53270;BME280;39159;45.634;9.420;2023-08-07T07:34:33;98480.91;;;24.14;26.20
53270;BME280;39159;45.634;9.420;2023-08-07T07:36:58;98490.34;;;24.28;25.48
53270;BME280;39159;45.634;9.420;2023-08-07T07:39:24;98494.66;;;24.36;25.06
53270;BME280;39159;45.634;9.420;2023-08-07T07:41:49;98491.66;;;24.61;25.35
53270;BME280;39159;45.634;9.420;2023-08-07T07:44:15;98495.91;;;24.31;26.39
53270;BME280;39159;45.634;9.420;2023-08-07T07:46:40;98500.03;;;24.65;25.92
53270;BME280;39159;45.634;9.420;2023-08-07T07:49:06;98505.59;;;25.02;26.15
53270;BME280;39159;45.634;9.420;2023-08-07T07:51:31;98508.84;;;24.97;24.72
53270;BME280;39159;45.634;9.420;2023-08-07T07:53:57;98517.41;;;24.79;24.56
53270;BME280;39159;45.634;9.420;2023-08-07T07:56:23;98514.72;;;25.07;25.47
53270;BME280;39159;45.634;9.420;2023-08-07T07:58:49;98527.16;;;24.98;23.49
53270;BME280;39159;45.634;9.420;2023-08-07T08:01:14;98525.31;;;25.26;24.17
53270;BME280;39159;45.634;9.420;2023-08-07T08:03:39;98524.16;;;25.23;23.79
53270;BME280;39159;45.634;9.420;2023-08-07T08:06:05;98529.13;;;25.39;24.69
53270;BME280;39159;45.634;9.420;2023-08-07T08:08:30;98532.19;;;25.14;23.03
53270;BME280;39159;45.634;9.420;2023-08-07T08:10:56;98531.13;;;24.63;23.40
53270;BME280;39159;45.634;9.420;2023-08-07T08:13:21;98537.47;;;25.05;24.55
53270;BME280;39159;45.634;9.420;2023-08-07T08:15:47;98535.13;;;25.03;23.67
53270;BME280;39159;45.634;9.420;2023-08-07T08:18:13;98547.09;;;25.38;24.84
53270;BME280;39159;45.634;9.420;2023-08-07T08:20:38;98535.41;;;25.47;23.31
53270;BME280;39159;45.634;9.420;2023-08-07T08:23:04;98534.31;;;25.99;24.18
53270;BME280;39159;45.634;9.420;2023-08-07T08:25:31;98549.75;;;26.11;24.26
53270;BME280;39159;45.634;9.420;2023-08-07T08:27:57;98545.91;;;25.70;23.86
